createdAt,value
2019-03-02T00:00:20.195Z,4.92
2019-03-02T00:02:48.587Z,4.96
2019-03-02T00:05:17.029Z,4.97
2019-03-02T00:07:47.696Z,4.97
2019-03-02T00:10:17.904Z,4.94
2019-03-02T00:12:46.965Z,4.98
2019-03-02T00:15:15.545Z,4.97
2019-03-02T00:17:43.979Z,4.96
2019-03-02T00:20:14.850Z,4.96
2019-03-02T00:22:43.493Z,4.95
2019-03-02T00:25:13.567Z,4.97
2019-03-02T00:27:41.973Z,4.95
2019-03-02T00:30:17.711Z,4.97
2019-03-02T00:32:45.864Z,4.97
2019-03-02T00:35:14.714Z,4.94
2019-03-02T00:37:43.490Z,4.92
2019-03-02T00:40:12.153Z,4.98
2019-03-02T00:42:41.131Z,5.00
2019-03-02T00:45:15.500Z,5.00
2019-03-02T00:47:44.087Z,4.98
2019-03-02T00:50:13.747Z,4.97
2019-03-02T00:52:42.626Z,4.99
2019-03-02T00:55:11.896Z,4.90
2019-03-02T00:57:40.413Z,4.93
2019-03-02T01:00:15.275Z,4.93
2019-03-02T01:02:45.028Z,4.89
2019-03-02T01:05:13.892Z,4.91
2019-03-02T01:07:42.778Z,4.88
2019-03-02T01:10:13.840Z,4.90
2019-03-02T01:12:43.971Z,4.88
2019-03-02T01:15:14.981Z,4.88
2019-03-02T01:17:43.794Z,4.86
2019-03-02T01:20:13.842Z,4.90
2019-03-02T01:22:42.783Z,4.89
2019-03-02T01:25:15.894Z,4.86
2019-03-02T01:27:44.273Z,4.87
2019-03-02T01:30:18.644Z,4.87
2019-03-02T01:32:48.875Z,4.83
2019-03-02T01:35:20.082Z,4.87
2019-03-02T01:37:47.577Z,4.86
2019-03-02T01:40:16.651Z,4.82
2019-03-02T01:42:45.207Z,4.83
2019-03-02T01:45:16.256Z,4.89
2019-03-02T01:47:50.736Z,4.85
2019-03-02T01:50:17.188Z,4.81
2019-03-02T01:52:45.731Z,4.84
2019-03-02T01:55:16.006Z,4.85
2019-03-02T01:57:44.530Z,4.79
2019-03-02T02:00:20.327Z,4.79
2019-03-02T02:02:48.824Z,4.74
2019-03-02T02:05:17.325Z,4.77
2019-03-02T02:07:45.748Z,4.71
2019-03-02T02:10:15.524Z,4.72
2019-03-02T02:12:44.026Z,4.72
2019-03-02T02:15:25.812Z,4.79
2019-03-02T02:17:54.116Z,4.73
2019-03-02T02:20:22.782Z,4.74
2019-03-02T02:22:51.168Z,4.66
2019-03-02T02:25:21.792Z,4.66
2019-03-02T02:27:50.205Z,4.68
2019-03-02T02:30:24.973Z,4.66
2019-03-02T02:33:02.810Z,4.67
2019-03-02T02:35:24.557Z,4.69
2019-03-02T02:37:53.146Z,4.67
2019-03-02T02:40:21.626Z,4.66
2019-03-02T02:42:50.032Z,4.72
2019-03-02T02:45:19.936Z,4.68
2019-03-02T02:47:52.316Z,4.70
2019-03-02T02:50:28.227Z,4.63
2019-03-02T02:52:50.792Z,4.64
2019-03-02T02:55:19.353Z,4.65
2019-03-02T02:57:47.770Z,4.67
2019-03-02T03:00:24.785Z,4.64
2019-03-02T03:02:53.335Z,4.63
2019-03-02T03:05:21.901Z,4.61
2019-03-02T03:07:53.786Z,4.63
2019-03-02T03:10:28.052Z,4.59
2019-03-02T03:12:56.849Z,4.59
2019-03-02T03:15:26.827Z,4.58
2019-03-02T03:17:55.255Z,4.62
2019-03-02T03:20:23.671Z,4.62
2019-03-02T03:22:52.196Z,4.61
2019-03-02T03:25:20.628Z,4.64
2019-03-02T03:27:51.960Z,4.67
2019-03-02T03:30:33.838Z,4.67
2019-03-02T03:32:56.621Z,4.64
2019-03-02T03:35:20.158Z,4.58
2019-03-02T03:37:51.429Z,4.60
2019-03-02T03:40:20.173Z,4.63
2019-03-02T03:42:49.260Z,4.64
2019-03-02T03:45:18.348Z,4.65
2019-03-02T03:47:46.794Z,4.59
2019-03-02T03:50:16.018Z,4.58
2019-03-02T03:52:48.863Z,4.59
2019-03-02T03:55:23.667Z,4.57
2019-03-02T03:57:45.834Z,4.58
2019-03-02T04:00:16.420Z,4.54
2019-03-02T04:02:44.944Z,4.49
2019-03-02T04:05:13.490Z,4.56
2019-03-02T04:07:48.483Z,4.53
2019-03-02T04:10:14.545Z,4.55
2019-03-02T04:12:43.038Z,4.58
2019-03-02T04:15:11.904Z,4.60
2019-03-02T04:17:40.936Z,4.56
2019-03-02T04:20:13.630Z,4.54
2019-03-02T04:22:44.751Z,4.58
2019-03-02T04:25:12.956Z,4.51
2019-03-02T04:27:42.755Z,4.48
2019-03-02T04:30:12.014Z,4.51
2019-03-02T04:32:40.435Z,4.56
2019-03-02T04:35:10.613Z,4.58
2019-03-02T04:37:40.008Z,4.56
2019-03-02T04:40:10.189Z,4.54
2019-03-02T04:42:39.280Z,4.56
2019-03-02T04:45:10.930Z,4.56
2019-03-02T04:47:39.446Z,4.57
2019-03-02T04:50:09.182Z,4.55
2019-03-02T04:52:37.689Z,4.51
2019-03-02T04:55:13.611Z,4.53
2019-03-02T04:57:43.092Z,4.49
2019-03-02T05:00:16.524Z,4.47
2019-03-02T05:02:44.941Z,4.41
2019-03-02T05:05:13.941Z,4.40
2019-03-02T05:07:42.431Z,4.45
2019-03-02T05:10:12.099Z,4.49
2019-03-02T05:12:40.568Z,4.47
2019-03-02T05:15:16.218Z,4.45
2019-03-02T05:17:44.254Z,4.46
2019-03-02T05:20:12.608Z,4.43
2019-03-02T05:22:41.040Z,4.51
2019-03-02T05:25:11.380Z,4.47
2019-03-02T05:27:39.833Z,4.45
2019-03-02T05:30:13.725Z,4.46
2019-03-02T05:32:42.819Z,4.46
2019-03-02T05:35:11.772Z,4.37
2019-03-02T05:37:41.492Z,4.37
2019-03-02T05:40:11.587Z,4.37
2019-03-02T05:42:40.010Z,4.36
2019-03-02T05:45:14.372Z,4.34
2019-03-02T05:47:42.891Z,4.37
2019-03-02T05:50:13.677Z,4.37
2019-03-02T05:52:42.101Z,4.36
2019-03-02T05:55:14.293Z,4.32
2019-03-02T05:57:41.588Z,4.27
2019-03-02T06:00:15.034Z,4.26
2019-03-02T06:02:43.456Z,4.31
2019-03-02T06:05:12.033Z,4.32
2019-03-02T06:07:40.458Z,4.34
2019-03-02T06:10:13.496Z,4.27
2019-03-02T06:12:41.316Z,4.28
2019-03-02T06:15:14.279Z,4.28
2019-03-02T06:17:42.717Z,4.31
2019-03-02T06:20:12.589Z,4.29
2019-03-02T06:22:41.017Z,4.33
2019-03-02T06:25:20.500Z,4.33
2019-03-02T06:27:48.566Z,4.32
2019-03-02T06:30:21.774Z,4.34
2019-03-02T06:32:50.263Z,4.41
2019-03-02T06:35:18.707Z,4.36
2019-03-02T06:37:47.119Z,4.34
2019-03-02T06:40:16.035Z,4.34
2019-03-02T06:42:46.693Z,4.35
2019-03-02T06:45:17.962Z,4.37
2019-03-02T06:47:46.955Z,4.38
2019-03-02T06:50:17.461Z,4.43
2019-03-02T06:52:45.918Z,4.43
2019-03-02T06:55:15.765Z,4.38
2019-03-02T06:57:46.158Z,4.41
2019-03-02T07:00:21.380Z,4.39
2019-03-02T07:02:49.797Z,4.43
2019-03-02T07:05:18.219Z,4.43
2019-03-02T07:07:46.666Z,4.47
2019-03-02T07:10:21.682Z,4.41
2019-03-02T07:12:55.039Z,4.44
2019-03-02T07:15:23.483Z,4.45
2019-03-02T07:18:06.138Z,4.51
2019-03-02T07:20:37.001Z,4.47
2019-03-02T07:23:05.663Z,4.54
2019-03-02T07:25:36.952Z,4.58
2019-03-02T07:28:05.871Z,4.59
2019-03-02T07:30:34.507Z,4.58
2019-03-02T07:33:03.293Z,4.60
2019-03-02T07:35:33.179Z,4.59
2019-03-02T07:38:02.381Z,4.56
2019-03-02T07:40:31.213Z,4.57
2019-03-02T07:42:59.854Z,4.62
2019-03-02T07:45:31.319Z,4.63
2019-03-02T07:48:00.295Z,4.65
2019-03-02T07:50:29.722Z,4.67
2019-03-02T07:52:58.308Z,4.63
2019-03-02T07:55:26.719Z,4.67
2019-03-02T07:57:59.931Z,4.65
2019-03-02T08:00:28.375Z,4.69
2019-03-02T08:02:56.815Z,4.76
2019-03-02T08:05:25.525Z,4.76
2019-03-02T08:07:54.313Z,4.73
2019-03-02T08:10:23.018Z,4.72
2019-03-02T08:12:52.022Z,4.76
2019-03-02T08:15:29.841Z,4.81
2019-03-02T08:17:58.246Z,4.75
2019-03-02T08:20:27.386Z,4.88
2019-03-02T08:22:55.938Z,4.87
2019-03-02T08:25:24.601Z,4.90
2019-03-02T08:27:53.736Z,4.98
2019-03-02T08:30:23.568Z,5.05
2019-03-02T08:32:53.951Z,5.03
2019-03-02T08:35:22.607Z,5.09
2019-03-02T08:37:51.028Z,5.18
2019-03-02T08:40:23.386Z,5.15
2019-03-02T08:42:50.019Z,5.20
2019-03-02T08:45:19.580Z,5.27
2019-03-02T08:47:48.319Z,5.29
2019-03-02T08:50:18.963Z,5.31
2019-03-02T08:52:47.438Z,5.33
2019-03-02T08:55:17.193Z,5.44
2019-03-02T08:57:46.350Z,5.47
2019-03-02T09:00:20.448Z,5.44
2019-03-02T09:02:48.871Z,5.45
2019-03-02T09:05:17.752Z,5.48
2019-03-02T09:07:47.107Z,5.45
2019-03-02T09:10:17.111Z,5.45
2019-03-02T09:12:45.609Z,5.48
2019-03-02T09:15:26.450Z,5.49
2019-03-02T09:17:57.643Z,5.54
2019-03-02T09:20:25.142Z,5.62
2019-03-02T09:22:56.298Z,5.67
2019-03-02T09:25:27.808Z,5.77
2019-03-02T09:27:54.753Z,5.88
2019-03-02T09:30:23.597Z,5.83
2019-03-02T09:32:53.613Z,5.94
2019-03-02T09:35:22.091Z,6.03
2019-03-02T09:37:51.854Z,6.10
2019-03-02T09:40:24.620Z,6.05
2019-03-02T09:42:53.146Z,6.12
2019-03-02T09:45:21.732Z,6.20
2019-03-02T09:47:52.027Z,6.16
2019-03-02T09:50:22.495Z,6.31
2019-03-02T09:52:51.978Z,6.37
2019-03-02T09:55:20.978Z,6.25
2019-03-02T09:57:50.257Z,6.37
2019-03-02T10:00:25.789Z,6.38
2019-03-02T10:02:54.898Z,6.42
2019-03-02T10:05:25.946Z,6.30
2019-03-02T10:07:54.169Z,6.29
2019-03-02T10:10:25.271Z,6.33
2019-03-02T10:12:54.342Z,6.34
2019-03-02T10:15:25.308Z,6.29
2019-03-02T10:17:53.799Z,6.49
2019-03-02T10:20:22.297Z,6.49
2019-03-02T10:22:50.919Z,6.51
2019-03-02T10:25:21.535Z,6.46
2019-03-02T10:27:53.891Z,6.55
2019-03-02T10:30:26.130Z,6.42
2019-03-02T10:32:55.656Z,6.45
2019-03-02T10:35:25.370Z,6.39
2019-03-02T10:37:53.827Z,6.46
2019-03-02T10:40:23.313Z,6.50
2019-03-02T10:42:51.951Z,6.46
2019-03-02T10:45:21.833Z,6.24
2019-03-02T10:47:50.612Z,6.24
2019-03-02T10:50:23.336Z,6.26
2019-03-02T10:52:52.207Z,6.32
2019-03-02T10:55:21.955Z,6.30
2019-03-02T10:57:50.621Z,6.23
2019-03-02T11:00:25.786Z,6.30
2019-03-02T11:02:57.359Z,6.36
2019-03-02T11:05:30.697Z,6.30
2019-03-02T11:08:17.126Z,6.27
2019-03-02T11:10:48.653Z,6.22
2019-03-02T11:13:35.214Z,6.25
2019-03-02T11:16:14.382Z,6.14
2019-03-02T11:18:49.915Z,6.22
2019-03-02T11:21:30.990Z,6.24
2019-03-02T11:24:16.897Z,6.41
2019-03-02T11:27:03.266Z,6.53
2019-03-02T11:29:33.364Z,6.65
2019-03-02T11:32:03.471Z,6.77
2019-03-02T11:34:39.662Z,6.76
2019-03-02T11:37:26.565Z,6.81
2019-03-02T11:40:08.703Z,6.90
2019-03-02T11:42:38.785Z,6.89
2019-03-02T11:45:10.698Z,6.91
2019-03-02T11:47:55.679Z,6.95
2019-03-02T11:50:34.740Z,6.86
2019-03-02T11:53:04.848Z,6.79
2019-03-02T11:55:49.637Z,6.86
2019-03-02T11:58:37.535Z,6.88
2019-03-02T12:01:13.661Z,6.91
2019-03-02T12:03:46.682Z,7.06
2019-03-02T12:06:22.922Z,7.20
2019-03-02T12:09:07.682Z,7.33
2019-03-02T12:11:52.725Z,7.34
2019-03-02T12:14:39.000Z,7.54
2019-03-02T12:17:09.062Z,7.75
2019-03-02T12:19:55.259Z,7.69
2019-03-02T12:22:25.348Z,7.82
2019-03-02T12:25:11.918Z,7.93
2019-03-02T12:27:44.613Z,7.89
2019-03-02T12:30:22.285Z,7.87
2019-03-02T12:32:56.300Z,7.81
2019-03-02T12:35:40.317Z,7.85
2019-03-02T12:38:13.356Z,7.98
2019-03-02T12:40:46.037Z,7.95
2019-03-02T12:43:18.552Z,7.77
2019-03-02T12:45:48.624Z,7.70
2019-03-02T12:48:29.347Z,7.78
2019-03-02T12:51:02.682Z,7.64
2019-03-02T12:53:34.075Z,7.69
2019-03-02T12:56:04.152Z,7.82
2019-03-02T12:58:50.850Z,7.76
2019-03-02T13:01:20.919Z,7.84
2019-03-02T13:03:50.989Z,7.87
2019-03-02T13:06:23.762Z,7.74
2019-03-02T13:08:53.822Z,7.85
2019-03-02T13:11:39.996Z,7.87
2019-03-02T13:14:18.940Z,7.86
2019-03-02T13:16:51.998Z,7.86
2019-03-02T13:19:26.837Z,7.84
2019-03-02T13:22:02.276Z,7.93
2019-03-02T13:24:47.507Z,7.99
2019-03-02T13:27:21.569Z,7.98
2019-03-02T13:30:07.128Z,7.86
2019-03-02T13:32:46.087Z,7.90
2019-03-02T13:35:23.485Z,7.95
2019-03-02T13:38:11.106Z,8.04
2019-03-02T13:40:59.054Z,8.11
2019-03-02T13:43:32.247Z,8.09
2019-03-02T13:46:05.043Z,8.25
2019-03-02T13:48:47.102Z,8.29
2019-03-02T13:51:33.716Z,8.35
2019-03-02T13:54:21.775Z,8.34
2019-03-02T13:57:07.922Z,8.39
2019-03-02T13:59:37.993Z,8.42
2019-03-02T14:02:17.057Z,8.23
2019-03-02T14:05:05.712Z,8.18
2019-03-02T14:07:37.694Z,7.99
2019-03-02T14:10:26.640Z,8.08
2019-03-02T14:13:05.475Z,7.91
2019-03-02T14:15:44.714Z,8.04
2019-03-02T14:18:28.430Z,8.03
2019-03-02T14:21:15.887Z,8.11
2019-03-02T14:23:48.903Z,8.08
2019-03-02T14:26:38.199Z,8.16
2019-03-02T14:29:20.387Z,8.18
2019-03-02T14:31:53.423Z,8.09
2019-03-02T14:34:23.533Z,8.12
2019-03-02T14:37:07.978Z,8.24
2019-03-02T14:39:38.220Z,8.17
2019-03-02T14:42:15.500Z,8.30
2019-03-02T14:44:57.274Z,8.39
2019-03-02T14:47:45.361Z,8.33
2019-03-02T14:50:28.807Z,8.35
2019-03-02T14:53:15.407Z,8.38
2019-03-02T14:55:48.610Z,8.45
2019-03-02T14:58:21.614Z,8.47
2019-03-02T15:01:10.072Z,8.49
2019-03-02T15:03:43.622Z,8.47
2019-03-02T15:06:14.512Z,8.39
2019-03-02T15:08:47.566Z,8.42
2019-03-02T15:11:20.925Z,8.43
2019-03-02T15:13:57.351Z,8.37
2019-03-02T15:16:32.323Z,8.24
2019-03-02T15:19:02.332Z,8.35
2019-03-02T15:21:35.002Z,8.22
2019-03-02T15:24:21.724Z,8.31
2019-03-02T15:27:07.270Z,8.32
2019-03-02T15:29:38.475Z,8.39
2019-03-02T15:32:25.194Z,8.40
2019-03-02T15:35:04.734Z,8.42
2019-03-02T15:37:43.971Z,8.47
2019-03-02T15:40:16.884Z,8.40
2019-03-02T15:42:47.064Z,8.39
2019-03-02T15:45:22.240Z,8.37
2019-03-02T15:47:55.490Z,8.42
2019-03-02T15:50:31.669Z,8.36
2019-03-02T15:53:02.064Z,8.33
2019-03-02T15:55:32.448Z,8.24
2019-03-02T15:58:14.666Z,8.18
2019-03-02T16:00:50.694Z,8.18
2019-03-02T16:03:33.822Z,8.21
2019-03-02T16:06:13.029Z,8.14
2019-03-02T16:08:59.331Z,8.09
2019-03-02T16:11:35.667Z,8.14
2019-03-02T16:14:11.940Z,8.09
2019-03-02T16:16:51.061Z,8.03
2019-03-02T16:22:16.034Z,8.02
2019-03-02T16:24:48.368Z,8.06
2019-03-02T16:27:18.054Z,7.93
2019-03-02T16:29:48.428Z,7.95
2019-03-02T16:32:20.253Z,7.98
2019-03-02T16:35:10.300Z,7.99
2019-03-02T16:37:40.596Z,8.03
2019-03-02T16:40:15.884Z,7.98
2019-03-02T16:42:50.914Z,7.99
2019-03-02T16:45:22.005Z,7.97
2019-03-02T16:47:53.017Z,7.90
2019-03-02T16:50:26.540Z,7.92
2019-03-02T16:52:59.533Z,7.96
2019-03-02T16:55:32.287Z,7.89
2019-03-02T16:58:02.895Z,7.88
2019-03-02T17:00:49.564Z,7.86
2019-03-02T17:03:29.099Z,7.87
2019-03-02T17:05:59.432Z,7.77
2019-03-02T17:08:31.275Z,7.74
2019-03-02T17:11:04.575Z,7.71
2019-03-02T17:13:35.020Z,7.77
2019-03-02T17:16:22.722Z,7.76
2019-03-02T17:18:53.146Z,7.80
2019-03-02T17:21:39.013Z,7.77
2019-03-02T17:24:09.392Z,7.75
2019-03-02T17:26:42.146Z,7.73
2019-03-02T17:29:17.868Z,7.72
2019-03-02T17:31:50.826Z,7.75
2019-03-02T17:34:29.926Z,7.73
2019-03-02T17:37:09.326Z,7.72
2019-03-02T17:39:48.962Z,7.72
2019-03-02T17:42:28.123Z,7.67
2019-03-02T17:45:00.386Z,7.67
2019-03-02T17:47:40.111Z,7.62
2019-03-02T17:50:27.499Z,7.60
2019-03-02T17:53:09.665Z,7.64
2019-03-02T17:55:51.857Z,7.65
2019-03-02T17:58:28.070Z,7.63
2019-03-02T18:01:01.972Z,7.61
2019-03-02T18:03:32.132Z,7.64
2019-03-02T18:06:14.500Z,7.63
2019-03-02T18:08:48.556Z,7.65
2019-03-02T18:11:34.473Z,7.64
2019-03-02T18:14:20.064Z,7.60
2019-03-02T18:16:59.555Z,7.53
2019-03-02T18:19:28.003Z,7.55
2019-03-02T18:21:56.858Z,7.56
2019-03-02T18:24:25.821Z,7.53
2019-03-02T18:26:57.046Z,7.51
2019-03-02T18:29:25.229Z,7.47
2019-03-02T18:31:57.367Z,7.47
2019-03-02T18:34:25.420Z,7.47
2019-03-02T18:36:54.288Z,7.52
2019-03-02T18:39:25.520Z,7.50
2019-03-02T18:41:53.981Z,7.53
2019-03-02T18:44:27.804Z,7.55
2019-03-02T18:46:56.253Z,7.55
2019-03-02T18:49:43.327Z,7.55
2019-03-02T18:52:17.162Z,7.54
2019-03-02T18:54:45.070Z,7.56
2019-03-02T18:57:14.569Z,7.57
2019-03-02T18:59:44.746Z,7.61
2019-03-02T19:02:13.813Z,7.65
2019-03-02T19:04:42.262Z,7.66
2019-03-02T19:07:10.981Z,7.70
2019-03-02T19:09:39.815Z,7.62
2019-03-02T19:12:08.265Z,7.68
2019-03-02T19:14:36.819Z,7.63
2019-03-02T19:17:05.957Z,7.61
2019-03-02T19:19:34.668Z,7.63
2019-03-02T19:22:03.241Z,7.60
2019-03-02T19:24:31.968Z,7.55
2019-03-02T19:27:00.475Z,7.62
2019-03-02T19:29:29.303Z,7.63
2019-03-02T19:31:57.931Z,7.58
2019-03-02T19:34:26.462Z,7.59
2019-03-02T19:36:55.211Z,7.60
2019-03-02T19:39:24.188Z,7.63
2019-03-02T19:41:53.796Z,7.63
2019-03-02T19:44:22.527Z,7.63
2019-03-02T19:46:50.972Z,7.68
2019-03-02T19:49:19.819Z,7.68
2019-03-02T19:51:48.593Z,7.71
2019-03-02T19:54:18.852Z,7.72
2019-03-02T19:56:47.462Z,7.73
2019-03-02T19:59:16.648Z,7.79
2019-03-02T20:01:46.855Z,7.82
2019-03-02T20:04:16.162Z,7.82
2019-03-02T20:06:44.848Z,7.89
2019-03-02T20:09:13.355Z,7.91
2019-03-02T20:11:41.880Z,7.91
2019-03-02T20:14:10.642Z,7.95
2019-03-02T20:16:39.164Z,7.98
2019-03-02T20:19:07.994Z,7.98
2019-03-02T20:21:36.722Z,8.04
2019-03-02T20:24:06.738Z,8.02
2019-03-02T20:26:35.855Z,8.01
2019-03-02T20:29:04.363Z,8.01
2019-03-02T20:31:33.146Z,8.08
2019-03-02T20:34:01.797Z,8.02
2019-03-02T20:36:30.366Z,8.04
2019-03-02T20:38:58.938Z,8.02
2019-03-02T20:41:27.377Z,8.03
2019-03-02T20:43:56.011Z,8.04
2019-03-02T20:46:24.519Z,8.04
2019-03-02T20:48:53.159Z,8.07
2019-03-02T20:51:21.660Z,8.11
2019-03-02T20:53:50.493Z,8.17
2019-03-02T20:56:19.159Z,8.15
2019-03-02T20:58:47.853Z,8.16
2019-03-02T21:01:16.307Z,8.22
2019-03-02T21:03:44.859Z,8.25
2019-03-02T21:06:13.445Z,8.28
2019-03-02T21:08:44.538Z,8.30
2019-03-02T21:11:13.034Z,8.35
2019-03-02T21:13:42.171Z,8.41
2019-03-02T21:16:10.889Z,8.48
2019-03-02T21:18:39.459Z,8.49
2019-03-02T21:21:08.372Z,8.48
2019-03-02T21:23:36.882Z,8.51
2019-03-02T21:26:06.216Z,8.53
2019-03-02T21:28:34.824Z,8.55
2019-03-02T21:31:03.999Z,8.55
2019-03-02T21:33:32.408Z,8.57
2019-03-02T21:36:00.936Z,8.57
2019-03-02T21:38:30.054Z,8.59
2019-03-02T21:40:58.958Z,8.62
2019-03-02T21:43:27.382Z,8.62
2019-03-02T21:45:55.963Z,8.63
2019-03-02T21:48:24.669Z,8.68
2019-03-02T21:50:59.366Z,8.67
2019-03-02T21:53:27.798Z,8.69
2019-03-02T21:55:56.614Z,8.69
2019-03-02T21:58:26.652Z,8.66
2019-03-02T22:00:55.131Z,8.67
2019-03-02T22:03:23.650Z,8.73
2019-03-02T22:05:52.073Z,8.75
2019-03-02T22:08:20.681Z,8.74
2019-03-02T22:10:57.764Z,8.72
2019-03-02T22:13:26.258Z,8.75
2019-03-02T22:15:54.787Z,8.74
2019-03-02T22:18:23.224Z,8.76
2019-03-02T22:20:52.128Z,8.74
2019-03-02T22:23:20.712Z,8.79
2019-03-02T22:25:49.350Z,8.82
2019-03-02T22:28:17.813Z,8.84
2019-03-02T22:30:46.395Z,8.84
2019-03-02T22:33:14.898Z,8.83
2019-03-02T22:35:43.399Z,8.85
2019-03-02T22:38:12.581Z,8.87
2019-03-02T22:40:41.011Z,8.86
2019-03-02T22:43:09.480Z,8.87
2019-03-02T22:45:38.202Z,8.87
2019-03-02T22:48:06.719Z,8.81
2019-03-02T22:50:36.193Z,8.84
2019-03-02T22:53:04.986Z,8.77
2019-03-02T22:55:33.655Z,8.71
2019-03-02T22:58:02.645Z,8.68
2019-03-02T23:00:45.784Z,8.65
2019-03-02T23:03:13.065Z,8.65
2019-03-02T23:05:42.694Z,8.65
2019-03-02T23:08:11.808Z,8.71
2019-03-02T23:10:40.230Z,8.72
2019-03-02T23:13:08.977Z,8.74
2019-03-02T23:15:38.224Z,8.70
2019-03-02T23:18:06.648Z,8.66
2019-03-02T23:20:35.112Z,8.73
2019-03-02T23:23:03.666Z,8.72
2019-03-02T23:25:32.153Z,8.72
2019-03-02T23:28:00.733Z,8.71
2019-03-02T23:30:29.260Z,8.69
2019-03-02T23:32:57.760Z,8.72
2019-03-02T23:35:26.205Z,8.70
2019-03-02T23:37:54.615Z,8.72
2019-03-02T23:40:24.781Z,8.73
2019-03-02T23:42:53.286Z,8.77
2019-03-02T23:45:21.853Z,8.76
2019-03-02T23:47:50.581Z,8.75
2019-03-02T23:50:19.091Z,8.77
2019-03-02T23:52:47.699Z,8.80
2019-03-02T23:55:16.485Z,8.83
2019-03-02T23:57:45.536Z,8.79
